Time;durP1;ratioP1;P1;durP2;ratioP2;P2;SDS_P1;SDS_P2;PMS_P1;PMS_P2;Temp;Humidity;BMP_temperature;BMP_pressure;BME280_temperature;BME280_humidity;BME280_pressure;Samples;Min_cycle;Max_cycle;Signal;HPM_P1;HPM_P2
2022/07/27 00:00:39;;;;;;;;;;;27.00;51.80;;;;;;4972720;29;19947;-96
2022/07/27 00:03:05;;;;;;;;;;;26.90;52.00;;;;;;4976145;29;19950;-96
2022/07/27 00:05:31;;;;;;;;;;;26.90;51.90;;;;;;4976035;29;20000;-96
2022/07/27 00:08:00;;;;;;;;;;;26.90;52.00;;;;;;4976619;29;19970;-96
2022/07/27 00:10:28;;;;;;;;;;;26.90;51.90;;;;;;4975868;29;20466;-96
2022/07/27 00:12:54;;;;;;;;;;;26.90;52.30;;;;;;4975107;29;19928;-96
2022/07/27 00:15:20;;;;;;;;;;;26.90;52.40;;;;;;4975585;29;19950;-96
2022/07/27 00:17:46;;;;;;;;;;;26.90;52.20;;;;;;4975909;29;19972;-96
2022/07/27 00:20:15;;;;;;;;;;;26.90;52.10;;;;;;4976739;29;19942;-96
2022/07/27 00:22:42;;;;;;;;;;;26.90;52.40;;;;;;4975699;29;19948;-96
2022/07/27 00:25:08;;;;;;;;;;;26.90;52.40;;;;;;4977529;28;19950;-96
2022/07/27 00:27:34;;;;;;;;;;;26.80;52.40;;;;;;4976166;29;19950;-96
2022/07/27 00:30:00;;;;;;;;;;;26.80;52.50;;;;;;4976835;29;20037;-96
2022/07/27 00:32:27;;;;;;;;;;;26.80;52.60;;;;;;4976631;29;19955;-96
2022/07/27 00:34:53;;;;;;;;;;;26.80;52.70;;;;;;4977199;29;19954;-96
2022/07/27 00:37:19;;;;;;;;;;;26.70;53.30;;;;;;4976829;28;19972;-96
2022/07/27 00:39:53;;;;;;;;;;;26.70;53.90;;;;;;4978323;28;19945;-96
2022/07/27 00:42:25;;;;;;;;;;;26.80;53.70;;;;;;4976802;29;19940;-96
2022/07/27 00:44:52;;;;;;;;;;;26.80;53.20;;;;;;4976930;29;19944;-96
2022/07/27 00:47:17;;;;;;;;;;;26.70;53.20;;;;;;4977347;29;19950;-96
2022/07/27 00:49:43;;;;;;;;;;;26.70;53.10;;;;;;4975892;29;19950;-96
2022/07/27 00:52:10;;;;;;;;;;;26.70;53.50;;;;;;4976883;28;19949;-96
2022/07/27 00:54:36;;;;;;;;;;;26.60;53.60;;;;;;4974594;29;19951;-96
2022/07/27 00:57:02;;;;;;;;;;;26.60;53.80;;;;;;4974179;29;19947;-96
2022/07/27 00:59:28;;;;;;;;;;;26.60;53.90;;;;;;4972535;29;19948;-96
2022/07/27 01:01:55;;;;;;;;;;;26.60;54.10;;;;;;4973644;28;20402;-96
2022/07/27 01:04:20;;;;;;;;;;;26.60;54.40;;;;;;4973511;28;19953;-96
2022/07/27 01:06:46;;;;;;;;;;;26.50;54.80;;;;;;4973754;29;19980;-96
2022/07/27 01:11:57;;;;;;;;;;;26.30;55.70;;;;;;4976429;29;20017;-96
2022/07/27 01:14:23;;;;;;;;;;;26.30;55.80;;;;;;4973840;29;19949;-96
2022/07/27 01:16:53;;;;;;;;;;;26.30;55.80;;;;;;4974366;29;19993;-96
2022/07/27 01:19:19;;;;;;;;;;;26.30;55.40;;;;;;4974667;29;19947;-96
2022/07/27 01:21:46;;;;;;;;;;;26.20;55.40;;;;;;4975398;29;19967;-96
2022/07/27 01:24:12;;;;;;;;;;;26.20;55.20;;;;;;4975563;28;19945;-96
2022/07/27 01:26:38;;;;;;;;;;;26.20;55.50;;;;;;4974502;29;19966;-96
2022/07/27 01:29:04;;;;;;;;;;;26.20;55.80;;;;;;4973954;29;19951;-96
2022/07/27 01:31:30;;;;;;;;;;;26.10;56.10;;;;;;4975213;28;19963;-96
2022/07/27 01:33:58;;;;;;;;;;;26.10;56.20;;;;;;4975076;29;19945;-96
2022/07/27 01:36:24;;;;;;;;;;;26.10;56.30;;;;;;4975509;28;19965;-96
2022/07/27 01:38:50;;;;;;;;;;;26.10;56.10;;;;;;4974598;29;19964;-96
2022/07/27 01:41:21;;;;;;;;;;;26.10;56.10;;;;;;4974395;29;19978;-96
2022/07/27 01:43:47;;;;;;;;;;;26.10;55.90;;;;;;4975897;28;20001;-96
2022/07/27 01:46:14;;;;;;;;;;;26.10;56.10;;;;;;4974464;29;19942;-96
2022/07/27 01:48:40;;;;;;;;;;;26.10;56.00;;;;;;4974061;29;19946;-96
2022/07/27 01:51:06;;;;;;;;;;;26.10;55.80;;;;;;5001996;23;20108;-96
2022/07/27 01:53:32;;;;;;;;;;;26.10;56.00;;;;;;4993708;28;19944;-96
2022/07/27 01:55:58;;;;;;;;;;;26.00;56.00;;;;;;4994488;28;19943;-96
2022/07/27 01:58:26;;;;;;;;;;;26.00;56.20;;;;;;4995389;28;19980;-96
2022/07/27 02:00:52;;;;;;;;;;;26.00;56.60;;;;;;4996217;28;19946;-96
2022/07/27 02:03:19;;;;;;;;;;;25.90;56.90;;;;;;4995493;28;19947;-96
2022/07/27 02:05:45;;;;;;;;;;;25.90;56.80;;;;;;4992739;28;20393;-96
2022/07/27 02:08:12;;;;;;;;;;;25.90;58.80;;;;;;4993246;28;20025;-96
2022/07/27 02:12:34;;;;;;;;;;;25.80;59.80;;;;;;4991194;28;19962;-96
2022/07/27 02:13:24;;;;;;;;;;;25.70;60.40;;;;;;4989786;28;19984;-96
2022/07/27 02:15:50;;;;;;;;;;;25.50;59.40;;;;;;4990520;28;19950;-96
2022/07/27 02:18:16;;;;;;;;;;;25.50;59.30;;;;;;4991267;28;20029;-96
2022/07/27 02:20:42;;;;;;;;;;;25.40;59.60;;;;;;4991947;28;19942;-96
2022/07/27 02:23:08;;;;;;;;;;;25.30;60.10;;;;;;4988145;28;19948;-96
2022/07/27 02:25:34;;;;;;;;;;;25.00;60.40;;;;;;4988324;28;20000;-96
2022/07/27 02:28:01;;;;;;;;;;;24.90;60.70;;;;;;4985760;28;19992;-96
2022/07/27 02:30:26;;;;;;;;;;;24.80;61.60;;;;;;4986727;28;19972;-96
2022/07/27 02:32:52;;;;;;;;;;;24.70;62.10;;;;;;4988501;28;19950;-96
2022/07/27 02:35:18;;;;;;;;;;;24.60;62.30;;;;;;4990045;28;19956;-96
2022/07/27 02:37:44;;;;;;;;;;;24.70;62.50;;;;;;4971564;29;19970;-96
2022/07/27 02:40:10;;;;;;;;;;;24.70;62.50;;;;;;4968672;29;19972;-96
2022/07/27 02:42:36;;;;;;;;;;;24.60;62.90;;;;;;4967993;29;20024;-96
2022/07/27 02:45:02;;;;;;;;;;;24.60;63.10;;;;;;4969483;29;19944;-96
2022/07/27 02:47:31;;;;;;;;;;;24.60;63.70;;;;;;4968291;29;20432;-96
2022/07/27 02:49:57;;;;;;;;;;;24.40;63.70;;;;;;4969397;28;20047;-96
2022/07/27 02:52:22;;;;;;;;;;;24.30;65.00;;;;;;4950522;29;19943;-96
2022/07/27 02:54:48;;;;;;;;;;;24.20;64.60;;;;;;4951221;29;19945;-96
2022/07/27 02:57:14;;;;;;;;;;;24.20;64.20;;;;;;4968182;29;20013;-96
2022/07/27 02:59:40;;;;;;;;;;;24.30;64.20;;;;;;4951390;29;19947;-96
2022/07/27 03:02:06;;;;;;;;;;;24.30;64.10;;;;;;4967163;29;19945;-96
2022/07/27 03:04:31;;;;;;;;;;;24.30;64.20;;;;;;4967691;29;19947;-96
2022/07/27 03:06:57;;;;;;;;;;;24.30;64.80;;;;;;4949819;29;19948;-96
2022/07/27 03:09:23;;;;;;;;;;;24.40;63.80;;;;;;4966960;29;19989;-96
2022/07/27 03:11:49;;;;;;;;;;;24.40;63.50;;;;;;4966777;28;19947;-96
2022/07/27 03:14:14;;;;;;;;;;;24.50;62.50;;;;;;4969697;29;20374;-96
2022/07/27 03:16:40;;;;;;;;;;;24.00;70.00;;;;;;4969181;29;19949;-96
2022/07/27 03:19:06;;;;;;;;;;;23.30;74.20;;;;;;4965479;29;19962;-96
2022/07/27 03:21:32;;;;;;;;;;;22.80;76.20;;;;;;4965239;28;20015;-96
2022/07/27 03:23:57;;;;;;;;;;;22.40;76.90;;;;;;4966486;28;19942;-96
2022/07/27 03:26:23;;;;;;;;;;;22.20;77.80;;;;;;4969000;29;19953;-96
2022/07/27 03:28:49;;;;;;;;;;;22.10;78.20;;;;;;4968836;28;20293;-96
2022/07/27 03:31:15;;;;;;;;;;;22.10;78.20;;;;;;4971240;28;19948;-96
2022/07/27 03:33:41;;;;;;;;;;;22.10;78.00;;;;;;4968917;29;19943;-96
2022/07/27 03:36:06;;;;;;;;;;;22.20;78.00;;;;;;4969019;28;19960;-96
2022/07/27 03:38:32;;;;;;;;;;;22.10;78.00;;;;;;4965914;29;19971;-96
2022/07/27 03:40:58;;;;;;;;;;;22.20;77.20;;;;;;4964528;29;19942;-96
2022/07/27 03:43:24;;;;;;;;;;;22.30;76.90;;;;;;4963231;29;20457;-96
2022/07/27 03:45:50;;;;;;;;;;;22.40;75.50;;;;;;4965583;29;19944;-96
2022/07/27 03:48:15;;;;;;;;;;;22.60;74.00;;;;;;4965186;28;19937;-96
2022/07/27 03:50:41;;;;;;;;;;;22.70;73.30;;;;;;4965951;29;20035;-96
2022/07/27 03:53:08;;;;;;;;;;;22.80;71.40;;;;;;4964717;29;20407;-96
2022/07/27 03:55:33;;;;;;;;;;;22.90;71.00;;;;;;4946450;29;19952;-96
2022/07/27 03:57:59;;;;;;;;;;;23.00;70.30;;;;;;4962561;29;19967;-96
2022/07/27 04:00:24;;;;;;;;;;;23.20;68.70;;;;;;4945591;29;19949;-96
2022/07/27 04:02:50;;;;;;;;;;;23.30;67.50;;;;;;4962843;29;20349;-96
2022/07/27 04:05:16;;;;;;;;;;;23.50;66.50;;;;;;4963988;29;19935;-96
2022/07/27 04:07:42;;;;;;;;;;;23.60;65.40;;;;;;4964918;29;19993;-96
2022/07/27 04:10:08;;;;;;;;;;;23.60;64.40;;;;;;4963853;29;20039;-96
2022/07/27 04:12:37;;;;;;;;;;;23.70;64.20;;;;;;4964059;29;19968;-96
2022/07/27 04:15:04;;;;;;;;;;;23.80;64.20;;;;;;4946657;29;20323;-96
2022/07/27 04:17:29;;;;;;;;;;;23.80;63.40;;;;;;4965623;29;19976;-96
2022/07/27 04:19:55;;;;;;;;;;;24.00;61.80;;;;;;4948540;29;19948;-96
2022/07/27 04:22:21;;;;;;;;;;;24.00;60.90;;;;;;4948946;29;19946;-96
2022/07/27 04:24:46;;;;;;;;;;;24.00;60.90;;;;;;4966181;29;19944;-96
2022/07/27 04:27:12;;;;;;;;;;;24.10;60.70;;;;;;4965310;29;19946;-96
2022/07/27 04:29:37;;;;;;;;;;;24.20;60.70;;;;;;4947261;29;20019;-96
2022/07/27 04:32:03;;;;;;;;;;;24.20;61.20;;;;;;4965281;29;19951;-96
2022/07/27 04:34:29;;;;;;;;;;;24.10;61.00;;;;;;4964497;29;19939;-96
2022/07/27 04:36:55;;;;;;;;;;;24.20;61.00;;;;;;4946983;29;20048;-96
2022/07/27 04:39:21;;;;;;;;;;;24.20;61.00;;;;;;4964572;28;19945;-96
2022/07/27 04:41:46;;;;;;;;;;;24.20;61.10;;;;;;4963820;29;19980;-96
2022/07/27 04:44:12;;;;;;;;;;;24.10;61.20;;;;;;4946442;29;19947;-96
2022/07/27 04:46:38;;;;;;;;;;;24.10;61.30;;;;;;4963164;29;20289;-96
2022/07/27 04:49:03;;;;;;;;;;;24.20;61.80;;;;;;4964685;29;20422;-96
2022/07/27 04:51:29;;;;;;;;;;;24.10;61.60;;;;;;4962802;29;19983;-96
2022/07/27 04:53:54;;;;;;;;;;;24.00;62.80;;;;;;4962381;29;19966;-96
2022/07/27 04:56:20;;;;;;;;;;;23.90;64.20;;;;;;4961108;29;19940;-96
2022/07/27 04:58:46;;;;;;;;;;;23.80;64.90;;;;;;4959943;29;19960;-96
2022/07/27 05:01:12;;;;;;;;;;;23.80;65.30;;;;;;4959888;29;19990;-96
2022/07/27 05:03:38;;;;;;;;;;;23.80;66.60;;;;;;4960910;29;19942;-96
2022/07/27 05:06:04;;;;;;;;;;;23.80;67.90;;;;;;4962176;29;19943;-96
2022/07/27 05:08:30;;;;;;;;;;;23.90;68.70;;;;;;4963344;29;19938;-96
2022/07/27 05:10:55;;;;;;;;;;;23.80;68.80;;;;;;4962835;29;19938;-96
2022/07/27 05:13:21;;;;;;;;;;;23.90;68.20;;;;;;4962042;29;19938;-96
2022/07/27 05:15:47;;;;;;;;;;;23.80;68.50;;;;;;4960731;29;20056;-96
2022/07/27 05:18:12;;;;;;;;;;;23.70;69.60;;;;;;4943012;29;19977;-96
2022/07/27 05:20:38;;;;;;;;;;;23.60;70.80;;;;;;4959798;29;19944;-96
2022/07/27 05:23:03;;;;;;;;;;;23.40;72.00;;;;;;4958959;29;19955;-96
2022/07/27 05:25:29;;;;;;;;;;;23.30;72.60;;;;;;4958789;29;19937;-96
2022/07/27 05:27:54;;;;;;;;;;;23.30;72.90;;;;;;4957992;29;19983;-96
2022/07/27 05:30:21;;;;;;;;;;;23.20;72.70;;;;;;4957804;29;19945;-96
2022/07/27 05:32:46;;;;;;;;;;;23.20;73.00;;;;;;4958116;29;20002;-96
2022/07/27 05:35:12;;;;;;;;;;;23.20;73.10;;;;;;4940744;28;19949;-96
2022/07/27 05:37:38;;;;;;;;;;;23.20;72.90;;;;;;4958508;29;19965;-96
2022/07/27 05:40:04;;;;;;;;;;;23.20;72.80;;;;;;4958044;29;19982;-96
2022/07/27 05:42:30;;;;;;;;;;;23.30;72.30;;;;;;4940636;29;20458;-96
2022/07/27 05:44:55;;;;;;;;;;;23.30;71.30;;;;;;4958601;29;19973;-96
2022/07/27 05:47:21;;;;;;;;;;;23.60;70.20;;;;;;4958251;29;20072;-96
2022/07/27 05:49:47;;;;;;;;;;;23.90;69.30;;;;;;4958199;29;20040;-96
2022/07/27 05:52:13;;;;;;;;;;;24.00;68.50;;;;;;4921767;29;20012;-96
2022/07/27 05:54:39;;;;;;;;;;;24.20;67.90;;;;;;4922448;29;19941;-96
2022/07/27 05:57:04;;;;;;;;;;;24.30;67.30;;;;;;4939067;29;19948;-96
2022/07/27 05:59:31;;;;;;;;;;;24.30;66.80;;;;;;4944333;29;19931;-96
2022/07/27 06:01:58;;;;;;;;;;;24.50;66.50;;;;;;4954931;29;19940;-96
2022/07/27 06:04:24;;;;;;;;;;;24.50;65.90;;;;;;4956417;29;19947;-96
2022/07/27 06:09:36;;;;;;;;;;;24.60;65.50;;;;;;4955169;29;19947;-96
2022/07/27 06:12:02;;;;;;;;;;;24.70;64.50;;;;;;4937936;29;19948;-96
2022/07/27 06:14:28;;;;;;;;;;;24.80;64.70;;;;;;4955189;29;19944;-96
2022/07/27 06:16:54;;;;;;;;;;;24.90;64.30;;;;;;4955363;29;19954;-96
2022/07/27 06:19:20;;;;;;;;;;;25.00;63.30;;;;;;4937494;29;19969;-96
2022/07/27 06:21:46;;;;;;;;;;;25.10;62.90;;;;;;4954342;29;20014;-96
2022/07/27 06:24:13;;;;;;;;;;;25.20;62.40;;;;;;4935482;29;19949;-96
2022/07/27 06:26:39;;;;;;;;;;;25.40;61.90;;;;;;4935913;29;20016;-96
2022/07/27 06:29:05;;;;;;;;;;;25.40;61.90;;;;;;4934454;29;19944;-96
2022/07/27 06:31:34;;;;;;;;;;;25.60;62.00;;;;;;4920949;29;20286;-96
2022/07/27 06:34:00;;;;;;;;;;;25.70;61.40;;;;;;4936982;29;20013;-96
2022/07/27 06:36:26;;;;;;;;;;;25.80;60.20;;;;;;4953996;29;19959;-96
2022/07/27 06:38:53;;;;;;;;;;;26.00;59.80;;;;;;4939014;29;19973;-96
2022/07/27 06:41:18;;;;;;;;;;;26.20;60.00;;;;;;4934869;29;19956;-96
2022/07/27 06:43:44;;;;;;;;;;;26.30;59.90;;;;;;4951690;29;19951;-96
2022/07/27 06:46:15;;;;;;;;;;;26.70;59.80;;;;;;4952847;29;19925;-96
2022/07/27 06:48:42;;;;;;;;;;;26.80;60.00;;;;;;4940046;29;19941;-96
2022/07/27 06:51:11;;;;;;;;;;;26.80;59.20;;;;;;4966887;29;19979;-96
2022/07/27 06:53:40;;;;;;;;;;;26.90;58.90;;;;;;4974727;29;19946;-96
2022/07/27 06:56:07;;;;;;;;;;;27.10;58.10;;;;;;4971363;29;19942;-96
2022/07/27 06:58:33;;;;;;;;;;;27.30;57.40;;;;;;4972772;29;19978;-96
2022/07/27 07:01:03;;;;;;;;;;;27.40;57.30;;;;;;4975886;28;19947;-96
2022/07/27 07:03:31;;;;;;;;;;;27.50;57.50;;;;;;4971672;29;19956;-96
2022/07/27 07:05:58;;;;;;;;;;;27.60;57.10;;;;;;4975251;29;20000;-96
2022/07/27 07:08:24;;;;;;;;;;;27.70;55.70;;;;;;4974182;29;19954;-96
2022/07/27 07:10:50;;;;;;;;;;;27.70;56.10;;;;;;4970072;28;20424;-96
2022/07/27 07:13:19;;;;;;;;;;;27.80;55.90;;;;;;4973123;29;19947;-96
2022/07/27 07:15:45;;;;;;;;;;;27.80;56.20;;;;;;4972765;29;19947;-96
2022/07/27 07:18:13;;;;;;;;;;;27.80;56.70;;;;;;4973732;28;19966;-96
2022/07/27 07:20:41;;;;;;;;;;;27.90;56.40;;;;;;4973747;29;19976;-96
2022/07/27 07:23:07;;;;;;;;;;;28.00;56.10;;;;;;4972894;29;20034;-96
2022/07/27 07:25:33;;;;;;;;;;;28.00;56.20;;;;;;4972462;29;19949;-96
2022/07/27 07:28:06;;;;;;;;;;;28.00;56.20;;;;;;4974273;29;19942;-96
2022/07/27 07:30:32;;;;;;;;;;;28.00;56.00;;;;;;4973918;29;19949;-96
2022/07/27 07:32:59;;;;;;;;;;;28.00;55.30;;;;;;4975199;29;19942;-96
2022/07/27 07:35:28;;;;;;;;;;;28.10;54.60;;;;;;4975317;28;19987;-96
2022/07/27 07:37:57;;;;;;;;;;;28.20;54.00;;;;;;4976067;29;20023;-96
2022/07/27 07:40:24;;;;;;;;;;;28.20;53.90;;;;;;4975320;29;19977;-96
2022/07/27 07:42:51;;;;;;;;;;;28.40;53.40;;;;;;4975088;29;19970;-96
2022/07/27 07:45:17;;;;;;;;;;;28.50;54.00;;;;;;4976399;28;19956;-96
2022/07/27 07:47:47;;;;;;;;;;;28.50;54.20;;;;;;4976528;29;20302;-96
2022/07/27 07:50:14;;;;;;;;;;;28.70;54.00;;;;;;4975656;29;19967;-96
2022/07/27 07:52:40;;;;;;;;;;;28.70;53.70;;;;;;4975059;29;19953;-96
2022/07/27 07:55:09;;;;;;;;;;;28.70;53.20;;;;;;4977138;28;19944;-96
2022/07/27 07:57:38;;;;;;;;;;;28.60;53.50;;;;;;4977049;29;20040;-96
2022/07/27 08:00:08;;;;;;;;;;;28.70;53.40;;;;;;4975333;29;19942;-96
2022/07/27 08:02:49;;;;;;;;;;;28.70;53.00;;;;;;4976216;29;19947;-96
2022/07/27 08:05:21;;;;;;;;;;;28.70;53.10;;;;;;4975791;29;19949;-96
2022/07/27 08:07:48;;;;;;;;;;;28.80;52.50;;;;;;4975098;29;19954;-96
2022/07/27 08:10:16;;;;;;;;;;;28.80;52.50;;;;;;4975596;29;19945;-96
2022/07/27 08:12:52;;;;;;;;;;;28.80;52.60;;;;;;4975568;28;19925;-96
2022/07/27 08:15:22;;;;;;;;;;;28.80;53.20;;;;;;4978648;28;19965;-96
2022/07/27 08:17:51;;;;;;;;;;;28.80;52.40;;;;;;4979126;28;20054;-96
2022/07/27 08:20:17;;;;;;;;;;;28.50;52.60;;;;;;4976404;29;19948;-96
2022/07/27 08:22:44;;;;;;;;;;;28.30;52.50;;;;;;4977718;29;19960;-96
2022/07/27 08:25:12;;;;;;;;;;;28.30;53.00;;;;;;4977961;29;20011;-96
2022/07/27 08:27:42;;;;;;;;;;;28.30;53.40;;;;;;4977730;29;19943;-96
2022/07/27 08:30:09;;;;;;;;;;;28.50;52.70;;;;;;4978735;29;19948;-96
2022/07/27 08:32:53;;;;;;;;;;;28.30;54.70;;;;;;4977929;29;19956;-96
2022/07/27 08:35:23;;;;;;;;;;;28.30;54.20;;;;;;4978531;28;19948;-96
2022/07/27 08:37:50;;;;;;;;;;;28.20;54.90;;;;;;4978952;29;19953;-96
2022/07/27 08:40:18;;;;;;;;;;;28.30;54.40;;;;;;4978911;29;19977;-96
2022/07/27 08:42:44;;;;;;;;;;;28.40;53.80;;;;;;4978043;29;19950;-96
2022/07/27 08:45:13;;;;;;;;;;;28.30;54.10;;;;;;4978360;29;19997;-96
2022/07/27 08:47:45;;;;;;;;;;;28.50;54.30;;;;;;4978621;29;19948;-96
2022/07/27 08:50:26;;;;;;;;;;;28.70;53.80;;;;;;4977555;29;20021;-96
2022/07/27 08:53:09;;;;;;;;;;;28.80;53.40;;;;;;4977444;29;19950;-96
2022/07/27 08:55:36;;;;;;;;;;;29.10;52.40;;;;;;4978345;29;19955;-96
2022/07/27 08:58:07;;;;;;;;;;;29.20;54.20;;;;;;4978154;29;19967;-96
2022/07/27 09:00:37;;;;;;;;;;;29.30;51.90;;;;;;4977645;29;20290;-96
2022/07/27 09:03:07;;;;;;;;;;;29.30;53.30;;;;;;4977477;29;19943;-96
2022/07/27 09:05:43;;;;;;;;;;;29.40;52.80;;;;;;4978536;29;19968;-96
2022/07/27 09:08:27;;;;;;;;;;;29.20;51.20;;;;;;4978082;29;19968;-96
2022/07/27 09:10:56;;;;;;;;;;;29.10;53.10;;;;;;4977342;29;19949;-96
2022/07/27 09:13:24;;;;;;;;;;;29.00;53.20;;;;;;4978521;29;19987;-96
2022/07/27 09:15:54;;;;;;;;;;;28.90;52.50;;;;;;4977416;29;20406;-96
2022/07/27 09:18:49;;;;;;;;;;;28.80;53.00;;;;;;4977265;29;19967;-96
2022/07/27 09:21:17;;;;;;;;;;;28.70;53.30;;;;;;4978119;29;19946;-96
2022/07/27 09:23:56;;;;;;;;;;;28.60;54.50;;;;;;4976240;29;19988;-96
2022/07/27 09:26:24;;;;;;;;;;;28.50;54.80;;;;;;4976131;28;19980;-96
2022/07/27 09:29:16;;;;;;;;;;;28.70;55.00;;;;;;4977741;28;19940;-96
2022/07/27 09:31:46;;;;;;;;;;;28.70;54.30;;;;;;4990982;28;19946;-96
2022/07/27 09:34:27;;;;;;;;;;;28.80;53.70;;;;;;4976673;29;19945;-96
2022/07/27 09:36:56;;;;;;;;;;;28.90;52.80;;;;;;4976140;28;19959;-96
2022/07/27 09:39:24;;;;;;;;;;;29.10;52.00;;;;;;4976421;29;19953;-96
2022/07/27 09:41:58;;;;;;;;;;;29.30;50.60;;;;;;4976768;29;19990;-96
2022/07/27 09:44:51;;;;;;;;;;;29.50;49.40;;;;;;4975822;29;19980;-96
2022/07/27 09:47:26;;;;;;;;;;;29.60;49.90;;;;;;4988787;28;19948;-96
2022/07/27 09:49:57;;;;;;;;;;;29.70;49.40;;;;;;4999590;23;19990;-96
2022/07/27 09:52:24;;;;;;;;;;;29.80;49.30;;;;;;4995945;28;19947;-96
2022/07/27 09:54:50;;;;;;;;;;;29.80;48.60;;;;;;4991741;28;19980;-96
2022/07/27 09:57:17;;;;;;;;;;;29.70;48.50;;;;;;4994568;28;19959;-96
2022/07/27 09:59:43;;;;;;;;;;;29.70;48.00;;;;;;4993764;28;19947;-96
2022/07/27 10:02:11;;;;;;;;;;;29.80;48.70;;;;;;4993289;28;19964;-96
2022/07/27 10:04:37;;;;;;;;;;;29.90;48.20;;;;;;4992514;28;19957;-96
2022/07/27 10:07:04;;;;;;;;;;;30.00;47.50;;;;;;4995889;28;19971;-96
2022/07/27 10:09:31;;;;;;;;;;;29.90;46.40;;;;;;4995399;28;19952;-96
2022/07/27 10:11:58;;;;;;;;;;;29.80;46.40;;;;;;4996407;28;19944;-96
2022/07/27 10:14:24;;;;;;;;;;;29.70;47.40;;;;;;4996200;28;19948;-96
2022/07/27 10:16:51;;;;;;;;;;;29.90;46.40;;;;;;4996679;28;19992;-96
2022/07/27 10:19:19;;;;;;;;;;;30.00;46.60;;;;;;4996668;28;19953;-96
2022/07/27 10:21:49;;;;;;;;;;;30.10;45.80;;;;;;4996145;28;19945;-96
2022/07/27 10:24:27;;;;;;;;;;;30.10;46.40;;;;;;4995480;28;19942;-96
2022/07/27 10:26:53;;;;;;;;;;;30.20;48.00;;;;;;4994545;28;19942;-96
2022/07/27 10:29:20;;;;;;;;;;;30.50;46.30;;;;;;4993637;28;20303;-96
2022/07/27 10:31:52;;;;;;;;;;;30.60;45.90;;;;;;4995053;28;19938;-96
2022/07/27 10:34:41;;;;;;;;;;;30.80;46.30;;;;;;4995856;28;19947;-96
2022/07/27 10:37:16;;;;;;;;;;;30.90;44.60;;;;;;4979235;28;19957;-96
2022/07/27 10:39:44;;;;;;;;;;;31.00;44.90;;;;;;4976102;28;20018;-96
2022/07/27 10:42:20;;;;;;;;;;;31.10;45.20;;;;;;4975759;29;19938;-96
2022/07/27 10:45:01;;;;;;;;;;;31.20;44.80;;;;;;4975162;29;19975;-96
2022/07/27 10:47:28;;;;;;;;;;;31.30;46.50;;;;;;4974817;29;20012;-96
2022/07/27 10:50:12;;;;;;;;;;;31.40;44.50;;;;;;4976556;28;20523;-96
2022/07/27 10:52:39;;;;;;;;;;;31.40;45.50;;;;;;4959757;29;19958;-96
2022/07/27 10:55:07;;;;;;;;;;;31.60;46.30;;;;;;4959122;29;19957;-96
2022/07/27 10:57:35;;;;;;;;;;;31.70;44.40;;;;;;4975480;29;20001;-96
2022/07/27 11:00:07;;;;;;;;;;;31.70;43.40;;;;;;4958106;29;19951;-96
2022/07/27 11:02:40;;;;;;;;;;;31.60;45.50;;;;;;4975195;29;19943;-96
2022/07/27 11:05:07;;;;;;;;;;;31.80;45.90;;;;;;4974430;29;19979;-96
2022/07/27 11:07:33;;;;;;;;;;;31.90;44.70;;;;;;4957859;29;19945;-96
2022/07/27 11:10:00;;;;;;;;;;;32.10;43.50;;;;;;4974307;29;20085;-96
2022/07/27 11:12:30;;;;;;;;;;;32.30;42.40;;;;;;4956620;29;19951;-96
2022/07/27 11:14:57;;;;;;;;;;;32.40;43.60;;;;;;4971648;28;19944;-96
2022/07/27 11:17:25;;;;;;;;;;;32.60;43.00;;;;;;4972482;29;19989;-96
2022/07/27 11:19:55;;;;;;;;;;;32.70;41.60;;;;;;4971599;29;19944;-96
2022/07/27 11:22:28;;;;;;;;;;;32.70;42.90;;;;;;4971869;29;19947;-96
2022/07/27 11:24:54;;;;;;;;;;;32.80;41.40;;;;;;4973673;28;19940;-96
2022/07/27 11:27:21;;;;;;;;;;;33.00;40.40;;;;;;4973499;28;19948;-96
2022/07/27 11:29:49;;;;;;;;;;;32.90;40.70;;;;;;4973277;29;20027;-96
2022/07/27 11:32:16;;;;;;;;;;;32.50;41.80;;;;;;4974689;29;19950;-96
2022/07/27 11:34:43;;;;;;;;;;;32.30;42.10;;;;;;4974386;29;20033;-96
2022/07/27 11:37:13;;;;;;;;;;;32.50;41.70;;;;;;4973107;28;19983;-96
2022/07/27 11:39:40;;;;;;;;;;;32.60;41.70;;;;;;4973210;29;20012;-96
2022/07/27 11:42:07;;;;;;;;;;;32.80;40.90;;;;;;4972842;29;19947;-96
2022/07/27 11:44:36;;;;;;;;;;;33.00;40.70;;;;;;4974879;29;19924;-96
2022/07/27 11:47:11;;;;;;;;;;;33.00;39.10;;;;;;4973600;28;19951;-96
2022/07/27 11:49:39;;;;;;;;;;;33.10;41.00;;;;;;4975622;28;19944;-96
2022/07/27 11:52:08;;;;;;;;;;;33.40;39.90;;;;;;4978421;29;19948;-96
2022/07/27 11:54:41;;;;;;;;;;;33.70;38.70;;;;;;4977475;29;19949;-96
2022/07/27 11:57:19;;;;;;;;;;;34.00;38.90;;;;;;4977640;29;19954;-96
2022/07/27 11:59:46;;;;;;;;;;;34.30;37.60;;;;;;4977543;29;20018;-96
2022/07/27 12:02:13;;;;;;;;;;;34.60;37.50;;;;;;4976540;29;20040;-96
2022/07/27 12:04:40;;;;;;;;;;;34.80;37.20;;;;;;4977404;29;19969;-96
2022/07/27 12:07:11;;;;;;;;;;;34.90;37.10;;;;;;4977816;29;19946;-96
2022/07/27 12:09:47;;;;;;;;;;;35.10;35.10;;;;;;4976486;29;19950;-96
2022/07/27 12:12:14;;;;;;;;;;;35.10;36.80;;;;;;4976982;29;19953;-96
2022/07/27 12:14:43;;;;;;;;;;;35.10;36.10;;;;;;4978716;29;19993;-96
2022/07/27 12:17:37;;;;;;;;;;;35.50;36.30;;;;;;4979453;28;19972;-96
2022/07/27 12:20:06;;;;;;;;;;;35.60;34.70;;;;;;4979488;28;20411;-96
2022/07/27 12:22:34;;;;;;;;;;;35.60;35.60;;;;;;4979238;29;20002;-96
2022/07/27 12:25:06;;;;;;;;;;;35.50;35.90;;;;;;4978694;29;19945;-96
2022/07/27 12:27:35;;;;;;;;;;;35.30;37.90;;;;;;4978358;29;19951;-96
2022/07/27 12:30:04;;;;;;;;;;;35.00;36.80;;;;;;4978297;29;19952;-96
2022/07/27 12:32:31;;;;;;;;;;;35.20;35.50;;;;;;4979107;29;20014;-96
2022/07/27 12:34:58;;;;;;;;;;;34.90;36.10;;;;;;4977432;29;19941;-96
2022/07/27 12:37:29;;;;;;;;;;;35.10;36.00;;;;;;4977761;28;19941;-96
2022/07/27 12:39:56;;;;;;;;;;;35.20;35.10;;;;;;4962602;29;19959;-96
2022/07/27 12:42:33;;;;;;;;;;;35.80;34.20;;;;;;4978948;29;19961;-96
2022/07/27 12:45:09;;;;;;;;;;;36.40;33.20;;;;;;4976805;29;20404;-96
2022/07/27 12:47:41;;;;;;;;;;;36.70;32.90;;;;;;4962296;29;20041;-96
2022/07/27 12:50:12;;;;;;;;;;;36.70;33.20;;;;;;4958015;29;20072;-96
2022/07/27 12:52:40;;;;;;;;;;;36.70;33.10;;;;;;4958636;28;19968;-96
2022/07/27 12:55:07;;;;;;;;;;;36.80;34.20;;;;;;4957963;28;19953;-96
2022/07/27 12:57:32;;;;;;;;;;;37.10;32.10;;;;;;4956886;29;19968;-96
2022/07/27 12:59:58;;;;;;;;;;;37.10;32.50;;;;;;4957838;28;19943;-96
2022/07/27 13:02:23;;;;;;;;;;;37.20;31.90;;;;;;4956625;29;19950;-96
2022/07/27 13:04:50;;;;;;;;;;;37.40;31.70;;;;;;4957849;29;20394;-96
2022/07/27 13:07:16;;;;;;;;;;;38.10;31.10;;;;;;4957856;29;20014;-96
2022/07/27 13:09:42;;;;;;;;;;;38.40;30.80;;;;;;4940454;29;20378;-96
2022/07/27 13:12:08;;;;;;;;;;;38.60;29.90;;;;;;4957292;28;19945;-96
2022/07/27 13:14:33;;;;;;;;;;;38.80;29.20;;;;;;4957797;29;19939;-96
2022/07/27 13:16:59;;;;;;;;;;;38.90;29.40;;;;;;4957657;29;19942;-96
2022/07/27 13:19:24;;;;;;;;;;;39.10;28.70;;;;;;4957676;29;19967;-96
2022/07/27 13:21:50;;;;;;;;;;;39.10;28.40;;;;;;4956294;29;19946;-96
2022/07/27 13:24:15;;;;;;;;;;;39.60;28.30;;;;;;4955739;29;20318;-96
2022/07/27 13:26:41;;;;;;;;;;;40.20;27.70;;;;;;4957262;29;20400;-96
2022/07/27 13:29:07;;;;;;;;;;;41.20;27.20;;;;;;4952366;28;19979;-96
2022/07/27 13:31:33;;;;;;;;;;;42.30;25.40;;;;;;4957372;28;19957;-96
2022/07/27 13:33:59;;;;;;;;;;;43.20;24.10;;;;;;4956051;29;19981;-96
2022/07/27 13:36:24;;;;;;;;;;;44.20;22.70;;;;;;4939613;29;20341;-96
2022/07/27 13:38:50;;;;;;;;;;;44.50;24.10;;;;;;4957337;28;19959;-96
2022/07/27 13:41:16;;;;;;;;;;;43.40;23.30;;;;;;4957436;29;19991;-96
2022/07/27 13:43:41;;;;;;;;;;;42.80;24.90;;;;;;4957061;29;20046;-96
2022/07/27 13:46:09;;;;;;;;;;;43.40;23.80;;;;;;4957085;28;19954;-96
2022/07/27 13:48:35;;;;;;;;;;;43.90;23.60;;;;;;4956635;28;20388;-96
2022/07/27 13:51:00;;;;;;;;;;;44.10;23.60;;;;;;4956622;28;19976;-96
2022/07/27 13:53:26;;;;;;;;;;;43.80;24.10;;;;;;4956704;29;19946;-96
2022/07/27 13:55:51;;;;;;;;;;;44.00;23.40;;;;;;4955579;29;19943;-96
2022/07/27 13:58:17;;;;;;;;;;;43.70;23.10;;;;;;4956675;29;19966;-96
2022/07/27 14:00:42;;;;;;;;;;;43.40;23.00;;;;;;4956950;28;19979;-96
2022/07/27 14:03:08;;;;;;;;;;;42.70;22.90;;;;;;4957057;29;19990;-95
2022/07/27 14:05:35;;;;;;;;;;;42.00;24.40;;;;;;4956919;28;19944;-96
2022/07/27 14:08:01;;;;;;;;;;;41.70;24.70;;;;;;4956706;28;19944;-96
2022/07/27 14:10:30;;;;;;;;;;;41.90;24.50;;;;;;4956957;28;19941;-96
2022/07/27 14:12:57;;;;;;;;;;;42.30;24.90;;;;;;4956414;28;19945;-96
2022/07/27 14:15:23;;;;;;;;;;;42.60;22.90;;;;;;4956827;29;19998;-96
2022/07/27 14:17:48;;;;;;;;;;;43.30;22.50;;;;;;4956536;29;20011;-96
2022/07/27 14:20:14;;;;;;;;;;;44.60;20.90;;;;;;4956352;29;19943;-96
2022/07/27 14:22:39;;;;;;;;;;;45.00;21.10;;;;;;4956403;29;19941;-96
2022/07/27 14:25:05;;;;;;;;;;;44.60;21.40;;;;;;4956476;29;19940;-96